sensor_id;sensor_type;location;lat;lon;timestamp;P1;durP1;ratioP1;P2;durP2;ratioP2
76693;SDS011;69667;52.136;5.424;2024-03-07T00:01:05;15.48;;;6.80;;
76693;SDS011;69667;52.136;5.424;2024-03-07T00:03:34;12.38;;;6.28;;
76693;SDS011;69667;52.136;5.424;2024-03-07T00:06:01;15.15;;;6.93;;
76693;SDS011;69667;52.136;5.424;2024-03-07T00:08:30;14.23;;;6.18;;
76693;SDS011;69667;52.136;5.424;2024-03-07T00:10:57;12.05;;;5.85;;
76693;SDS011;69667;52.136;5.424;2024-03-07T00:13:25;16.60;;;5.60;;
76693;SDS011;69667;52.136;5.424;2024-03-07T00:15:54;15.80;;;7.38;;
76693;SDS011;69667;52.136;5.424;2024-03-07T00:18:22;13.98;;;6.68;;
76693;SDS011;69667;52.136;5.424;2024-03-07T00:20:49;10.30;;;6.00;;
76693;SDS011;69667;52.136;5.424;2024-03-07T00:23:16;11.57;;;7.43;;
76693;SDS011;69667;52.136;5.424;2024-03-07T00:25:44;18.65;;;6.88;;
76693;SDS011;69667;52.136;5.424;2024-03-07T00:28:12;12.95;;;6.68;;
76693;SDS011;69667;52.136;5.424;2024-03-07T00:30:41;10.13;;;7.10;;
76693;SDS011;69667;52.136;5.424;2024-03-07T00:36:13;14.95;;;7.07;;
76693;SDS011;69667;52.136;5.424;2024-03-07T00:38:40;15.45;;;7.20;;
76693;SDS011;69667;52.136;5.424;2024-03-07T00:41:08;12.93;;;5.28;;
76693;SDS011;69667;52.136;5.424;2024-03-07T00:43:36;12.13;;;6.38;;
76693;SDS011;69667;52.136;5.424;2024-03-07T00:46:03;15.68;;;7.80;;
76693;SDS011;69667;52.136;5.424;2024-03-07T00:48:33;13.57;;;6.55;;
76693;SDS011;69667;52.136;5.424;2024-03-07T00:51:00;11.13;;;5.82;;
76693;SDS011;69667;52.136;5.424;2024-03-07T00:53:27;13.13;;;6.13;;
76693;SDS011;69667;52.136;5.424;2024-03-07T00:55:54;13.98;;;7.82;;
76693;SDS011;69667;52.136;5.424;2024-03-07T00:58:21;14.65;;;6.47;;
76693;SDS011;69667;52.136;5.424;2024-03-07T01:00:48;13.93;;;7.10;;
76693;SDS011;69667;52.136;5.424;2024-03-07T01:03:16;13.55;;;8.35;;
76693;SDS011;69667;52.136;5.424;2024-03-07T01:05:44;15.85;;;8.07;;
76693;SDS011;69667;52.136;5.424;2024-03-07T01:08:12;19.20;;;8.40;;
76693;SDS011;69667;52.136;5.424;2024-03-07T01:10:41;16.80;;;7.50;;
76693;SDS011;69667;52.136;5.424;2024-03-07T01:13:08;18.48;;;7.32;;
76693;SDS011;69667;52.136;5.424;2024-03-07T01:15:45;15.00;;;6.10;;
76693;SDS011;69667;52.136;5.424;2024-03-07T01:18:12;16.88;;;6.50;;
76693;SDS011;69667;52.136;5.424;2024-03-07T01:20:42;18.55;;;9.20;;
76693;SDS011;69667;52.136;5.424;2024-03-07T01:23:10;12.52;;;6.90;;
76693;SDS011;69667;52.136;5.424;2024-03-07T01:25:37;15.35;;;6.13;;
76693;SDS011;69667;52.136;5.424;2024-03-07T01:28:05;15.93;;;7.57;;
76693;SDS011;69667;52.136;5.424;2024-03-07T01:30:33;11.88;;;6.20;;
76693;SDS011;69667;52.136;5.424;2024-03-07T01:33:06;13.45;;;7.45;;
76693;SDS011;69667;52.136;5.424;2024-03-07T01:35:34;13.73;;;6.63;;
76693;SDS011;69667;52.136;5.424;2024-03-07T01:38:01;13.27;;;7.35;;
76693;SDS011;69667;52.136;5.424;2024-03-07T01:40:29;13.43;;;6.45;;
76693;SDS011;69667;52.136;5.424;2024-03-07T01:42:56;10.32;;;6.10;;
76693;SDS011;69667;52.136;5.424;2024-03-07T01:45:23;12.68;;;5.38;;
76693;SDS011;69667;52.136;5.424;2024-03-07T01:47:51;12.20;;;6.35;;
76693;SDS011;69667;52.136;5.424;2024-03-07T01:50:18;10.75;;;6.57;;
76693;SDS011;69667;52.136;5.424;2024-03-07T01:52:46;14.02;;;6.10;;
76693;SDS011;69667;52.136;5.424;2024-03-07T01:55:22;16.88;;;8.20;;
76693;SDS011;69667;52.136;5.424;2024-03-07T01:57:58;12.77;;;6.70;;
76693;SDS011;69667;52.136;5.424;2024-03-07T02:00:26;16.05;;;6.07;;
76693;SDS011;69667;52.136;5.424;2024-03-07T02:02:56;15.00;;;7.45;;
76693;SDS011;69667;52.136;5.424;2024-03-07T02:05:23;14.75;;;7.30;;
76693;SDS011;69667;52.136;5.424;2024-03-07T02:07:52;10.65;;;5.55;;
76693;SDS011;69667;52.136;5.424;2024-03-07T02:10:19;13.55;;;6.65;;
76693;SDS011;69667;52.136;5.424;2024-03-07T02:12:46;12.25;;;6.60;;
76693;SDS011;69667;52.136;5.424;2024-03-07T02:15:14;11.30;;;5.78;;
76693;SDS011;69667;52.136;5.424;2024-03-07T02:17:41;18.35;;;6.78;;
76693;SDS011;69667;52.136;5.424;2024-03-07T02:20:10;12.15;;;6.60;;
76693;SDS011;69667;52.136;5.424;2024-03-07T02:22:38;12.90;;;7.57;;
76693;SDS011;69667;52.136;5.424;2024-03-07T02:25:05;20.05;;;8.48;;
76693;SDS011;69667;52.136;5.424;2024-03-07T02:27:33;16.65;;;8.82;;
76693;SDS011;69667;52.136;5.424;2024-03-07T02:30:00;19.00;;;7.70;;
76693;SDS011;69667;52.136;5.424;2024-03-07T02:32:31;15.60;;;7.60;;
76693;SDS011;69667;52.136;5.424;2024-03-07T02:34:58;14.80;;;7.43;;
76693;SDS011;69667;52.136;5.424;2024-03-07T02:37:26;12.65;;;6.55;;
76693;SDS011;69667;52.136;5.424;2024-03-07T02:40:05;15.02;;;8.05;;
76693;SDS011;69667;52.136;5.424;2024-03-07T02:42:35;11.77;;;6.28;;
76693;SDS011;69667;52.136;5.424;2024-03-07T02:45:02;12.00;;;5.70;;
76693;SDS011;69667;52.136;5.424;2024-03-07T02:47:29;10.73;;;5.32;;
76693;SDS011;69667;52.136;5.424;2024-03-07T02:49:57;15.50;;;6.30;;
76693;SDS011;69667;52.136;5.424;2024-03-07T02:52:24;20.17;;;7.68;;
76693;SDS011;69667;52.136;5.424;2024-03-07T02:54:52;16.15;;;7.00;;
76693;SDS011;69667;52.136;5.424;2024-03-07T02:57:20;17.35;;;5.95;;
76693;SDS011;69667;52.136;5.424;2024-03-07T02:59:47;10.48;;;6.53;;
76693;SDS011;69667;52.136;5.424;2024-03-07T03:02:14;14.73;;;6.63;;
76693;SDS011;69667;52.136;5.424;2024-03-07T03:04:41;14.60;;;6.35;;
76693;SDS011;69667;52.136;5.424;2024-03-07T03:07:10;12.00;;;6.22;;
76693;SDS011;69667;52.136;5.424;2024-03-07T03:09:38;14.35;;;5.82;;
76693;SDS011;69667;52.136;5.424;2024-03-07T03:12:10;14.00;;;7.85;;
76693;SDS011;69667;52.136;5.424;2024-03-07T03:14:37;12.32;;;6.43;;
76693;SDS011;69667;52.136;5.424;2024-03-07T03:17:06;17.88;;;7.43;;
76693;SDS011;69667;52.136;5.424;2024-03-07T03:19:35;12.95;;;6.03;;
76693;SDS011;69667;52.136;5.424;2024-03-07T03:24:48;13.45;;;7.18;;
76693;SDS011;69667;52.136;5.424;2024-03-07T03:27:15;13.27;;;7.18;;
76693;SDS011;69667;52.136;5.424;2024-03-07T03:29:42;18.38;;;7.25;;
76693;SDS011;69667;52.136;5.424;2024-03-07T03:32:11;13.88;;;5.90;;
76693;SDS011;69667;52.136;5.424;2024-03-07T03:34:39;11.65;;;5.75;;
76693;SDS011;69667;52.136;5.424;2024-03-07T03:37:10;12.52;;;6.32;;
76693;SDS011;69667;52.136;5.424;2024-03-07T03:39:38;14.85;;;7.53;;
76693;SDS011;69667;52.136;5.424;2024-03-07T03:42:05;13.40;;;5.93;;
76693;SDS011;69667;52.136;5.424;2024-03-07T03:44:33;12.30;;;5.20;;
76693;SDS011;69667;52.136;5.424;2024-03-07T03:47:01;20.90;;;6.22;;
76693;SDS011;69667;52.136;5.424;2024-03-07T03:49:29;15.98;;;5.90;;
76693;SDS011;69667;52.136;5.424;2024-03-07T03:51:57;19.95;;;6.28;;
76693;SDS011;69667;52.136;5.424;2024-03-07T03:54:26;12.23;;;5.97;;
76693;SDS011;69667;52.136;5.424;2024-03-07T03:56:54;11.65;;;6.93;;
76693;SDS011;69667;52.136;5.424;2024-03-07T03:59:21;12.82;;;6.88;;
76693;SDS011;69667;52.136;5.424;2024-03-07T04:01:48;10.55;;;5.35;;
76693;SDS011;69667;52.136;5.424;2024-03-07T04:07:05;16.85;;;5.40;;
76693;SDS011;69667;52.136;5.424;2024-03-07T04:09:33;17.90;;;8.18;;
76693;SDS011;69667;52.136;5.424;2024-03-07T04:12:01;11.13;;;6.35;;
76693;SDS011;69667;52.136;5.424;2024-03-07T04:14:28;8.45;;;5.32;;
76693;SDS011;69667;52.136;5.424;2024-03-07T04:16:59;13.57;;;6.35;;
76693;SDS011;69667;52.136;5.424;2024-03-07T04:19:26;13.77;;;7.28;;
76693;SDS011;69667;52.136;5.424;2024-03-07T04:21:54;17.95;;;7.65;;
76693;SDS011;69667;52.136;5.424;2024-03-07T04:24:21;20.77;;;6.57;;
76693;SDS011;69667;52.136;5.424;2024-03-07T04:26:49;11.68;;;6.43;;
76693;SDS011;69667;52.136;5.424;2024-03-07T04:29:16;15.90;;;6.88;;
76693;SDS011;69667;52.136;5.424;2024-03-07T04:31:45;13.68;;;6.05;;
76693;SDS011;69667;52.136;5.424;2024-03-07T04:34:12;14.60;;;7.35;;
76693;SDS011;69667;52.136;5.424;2024-03-07T04:36:39;15.07;;;7.38;;
76693;SDS011;69667;52.136;5.424;2024-03-07T04:39:07;15.68;;;6.07;;
76693;SDS011;69667;52.136;5.424;2024-03-07T04:42:09;11.95;;;6.82;;
76693;SDS011;69667;52.136;5.424;2024-03-07T04:44:36;11.85;;;5.50;;
76693;SDS011;69667;52.136;5.424;2024-03-07T04:47:04;15.23;;;5.63;;
76693;SDS011;69667;52.136;5.424;2024-03-07T04:49:35;14.57;;;6.22;;
76693;SDS011;69667;52.136;5.424;2024-03-07T04:52:02;18.92;;;6.18;;
76693;SDS011;69667;52.136;5.424;2024-03-07T04:54:30;10.77;;;4.93;;
76693;SDS011;69667;52.136;5.424;2024-03-07T04:57:01;18.55;;;5.32;;
76693;SDS011;69667;52.136;5.424;2024-03-07T04:59:29;12.27;;;6.00;;
76693;SDS011;69667;52.136;5.424;2024-03-07T05:01:56;14.90;;;6.90;;
76693;SDS011;69667;52.136;5.424;2024-03-07T05:04:24;13.93;;;6.97;;
76693;SDS011;69667;52.136;5.424;2024-03-07T05:06:51;13.25;;;5.70;;
76693;SDS011;69667;52.136;5.424;2024-03-07T05:09:18;15.13;;;5.25;;
76693;SDS011;69667;52.136;5.424;2024-03-07T05:11:52;18.52;;;7.53;;
76693;SDS011;69667;52.136;5.424;2024-03-07T05:14:21;10.75;;;4.72;;
76693;SDS011;69667;52.136;5.424;2024-03-07T05:16:49;9.95;;;5.28;;
76693;SDS011;69667;52.136;5.424;2024-03-07T05:19:32;11.55;;;5.82;;
76693;SDS011;69667;52.136;5.424;2024-03-07T05:22:01;16.20;;;6.13;;
76693;SDS011;69667;52.136;5.424;2024-03-07T05:24:29;14.82;;;6.25;;
76693;SDS011;69667;52.136;5.424;2024-03-07T05:26:56;12.18;;;5.22;;
76693;SDS011;69667;52.136;5.424;2024-03-07T05:29:24;9.20;;;4.82;;
76693;SDS011;69667;52.136;5.424;2024-03-07T05:31:51;12.55;;;7.32;;
76693;SDS011;69667;52.136;5.424;2024-03-07T05:34:18;8.75;;;5.18;;
76693;SDS011;69667;52.136;5.424;2024-03-07T05:36:46;12.00;;;5.88;;
76693;SDS011;69667;52.136;5.424;2024-03-07T05:39:14;11.73;;;4.97;;
76693;SDS011;69667;52.136;5.424;2024-03-07T05:41:43;11.20;;;4.45;;
76693;SDS011;69667;52.136;5.424;2024-03-07T05:44:13;7.90;;;4.75;;
76693;SDS011;69667;52.136;5.424;2024-03-07T05:46:41;11.15;;;5.55;;
76693;SDS011;69667;52.136;5.424;2024-03-07T05:49:15;10.20;;;5.22;;
76693;SDS011;69667;52.136;5.424;2024-03-07T05:51:46;16.70;;;4.28;;
76693;SDS011;69667;52.136;5.424;2024-03-07T05:54:14;9.63;;;5.72;;
76693;SDS011;69667;52.136;5.424;2024-03-07T05:56:53;6.93;;;4.03;;
76693;SDS011;69667;52.136;5.424;2024-03-07T05:59:33;10.73;;;5.47;;
76693;SDS011;69667;52.136;5.424;2024-03-07T06:02:03;8.80;;;4.72;;
76693;SDS011;69667;52.136;5.424;2024-03-07T06:04:31;9.35;;;3.67;;
76693;SDS011;69667;52.136;5.424;2024-03-07T06:06:59;11.82;;;4.53;;
76693;SDS011;69667;52.136;5.424;2024-03-07T06:09:26;9.45;;;6.60;;
76693;SDS011;69667;52.136;5.424;2024-03-07T06:11:54;20.88;;;7.07;;
76693;SDS011;69667;52.136;5.424;2024-03-07T06:14:23;10.35;;;5.60;;
76693;SDS011;69667;52.136;5.424;2024-03-07T06:16:51;10.93;;;6.22;;
76693;SDS011;69667;52.136;5.424;2024-03-07T06:19:21;15.35;;;5.93;;
76693;SDS011;69667;52.136;5.424;2024-03-07T06:21:48;15.40;;;6.68;;
76693;SDS011;69667;52.136;5.424;2024-03-07T06:24:16;13.98;;;7.70;;
76693;SDS011;69667;52.136;5.424;2024-03-07T06:26:49;17.02;;;7.85;;
76693;SDS011;69667;52.136;5.424;2024-03-07T06:29:26;16.00;;;7.55;;
76693;SDS011;69667;52.136;5.424;2024-03-07T06:34:44;9.25;;;5.90;;
76693;SDS011;69667;52.136;5.424;2024-03-07T06:37:11;10.65;;;5.75;;
76693;SDS011;69667;52.136;5.424;2024-03-07T06:39:39;14.10;;;7.78;;
76693;SDS011;69667;52.136;5.424;2024-03-07T06:42:06;12.93;;;7.05;;
76693;SDS011;69667;52.136;5.424;2024-03-07T06:44:33;13.15;;;6.53;;
76693;SDS011;69667;52.136;5.424;2024-03-07T06:47:01;21.15;;;6.72;;
76693;SDS011;69667;52.136;5.424;2024-03-07T06:49:28;13.13;;;5.70;;
76693;SDS011;69667;52.136;5.424;2024-03-07T06:51:55;18.30;;;6.90;;
76693;SDS011;69667;52.136;5.424;2024-03-07T06:54:24;19.05;;;7.07;;
76693;SDS011;69667;52.136;5.424;2024-03-07T06:56:51;9.95;;;6.40;;
76693;SDS011;69667;52.136;5.424;2024-03-07T06:59:19;11.27;;;5.45;;
76693;SDS011;69667;52.136;5.424;2024-03-07T07:01:46;13.63;;;6.88;;
76693;SDS011;69667;52.136;5.424;2024-03-07T07:04:14;16.15;;;7.05;;
76693;SDS011;69667;52.136;5.424;2024-03-07T07:06:41;13.75;;;6.70;;
76693;SDS011;69667;52.136;5.424;2024-03-07T07:09:10;9.65;;;5.70;;
76693;SDS011;69667;52.136;5.424;2024-03-07T07:11:37;16.38;;;8.38;;
76693;SDS011;69667;52.136;5.424;2024-03-07T07:16:58;17.13;;;7.00;;
76693;SDS011;69667;52.136;5.424;2024-03-07T07:19:26;13.65;;;7.30;;
76693;SDS011;69667;52.136;5.424;2024-03-07T07:21:53;19.73;;;7.55;;
76693;SDS011;69667;52.136;5.424;2024-03-07T07:24:24;20.55;;;8.27;;
76693;SDS011;69667;52.136;5.424;2024-03-07T07:26:52;12.40;;;5.85;;
76693;SDS011;69667;52.136;5.424;2024-03-07T07:29:19;18.33;;;7.90;;
76693;SDS011;69667;52.136;5.424;2024-03-07T07:31:46;22.25;;;9.93;;
76693;SDS011;69667;52.136;5.424;2024-03-07T07:34:13;20.60;;;9.00;;
76693;SDS011;69667;52.136;5.424;2024-03-07T07:36:40;29.27;;;10.18;;
76693;SDS011;69667;52.136;5.424;2024-03-07T07:39:11;12.00;;;6.85;;
76693;SDS011;69667;52.136;5.424;2024-03-07T07:41:44;16.38;;;8.93;;
76693;SDS011;69667;52.136;5.424;2024-03-07T07:44:11;14.43;;;7.68;;
76693;SDS011;69667;52.136;5.424;2024-03-07T07:46:39;15.82;;;8.90;;
76693;SDS011;69667;52.136;5.424;2024-03-07T07:49:07;18.42;;;9.00;;
76693;SDS011;69667;52.136;5.424;2024-03-07T07:54:53;17.90;;;8.07;;
76693;SDS011;69667;52.136;5.424;2024-03-07T07:57:20;13.45;;;8.02;;
76693;SDS011;69667;52.136;5.424;2024-03-07T07:59:48;18.05;;;9.85;;
76693;SDS011;69667;52.136;5.424;2024-03-07T08:02:16;21.45;;;8.35;;
76693;SDS011;69667;52.136;5.424;2024-03-07T08:04:44;14.35;;;7.20;;
76693;SDS011;69667;52.136;5.424;2024-03-07T08:07:12;14.88;;;6.65;;
76693;SDS011;69667;52.136;5.424;2024-03-07T08:09:40;15.68;;;7.32;;
76693;SDS011;69667;52.136;5.424;2024-03-07T08:12:07;12.40;;;6.68;;
76693;SDS011;69667;52.136;5.424;2024-03-07T08:14:36;13.98;;;7.60;;
76693;SDS011;69667;52.136;5.424;2024-03-07T08:17:03;16.35;;;5.70;;
76693;SDS011;69667;52.136;5.424;2024-03-07T08:19:30;17.08;;;8.38;;
76693;SDS011;69667;52.136;5.424;2024-03-07T08:21:57;12.68;;;7.18;;
76693;SDS011;69667;52.136;5.424;2024-03-07T08:27:13;12.93;;;6.70;;
76693;SDS011;69667;52.136;5.424;2024-03-07T08:29:42;12.43;;;6.32;;
76693;SDS011;69667;52.136;5.424;2024-03-07T08:32:14;15.10;;;6.68;;
76693;SDS011;69667;52.136;5.424;2024-03-07T08:34:54;11.85;;;6.40;;
76693;SDS011;69667;52.136;5.424;2024-03-07T08:37:22;16.20;;;6.68;;
76693;SDS011;69667;52.136;5.424;2024-03-07T08:39:49;12.13;;;7.40;;
76693;SDS011;69667;52.136;5.424;2024-03-07T08:42:19;11.98;;;6.28;;
76693;SDS011;69667;52.136;5.424;2024-03-07T08:44:46;16.13;;;7.85;;
76693;SDS011;69667;52.136;5.424;2024-03-07T08:47:14;10.52;;;6.00;;
76693;SDS011;69667;52.136;5.424;2024-03-07T08:49:41;10.65;;;5.97;;
76693;SDS011;69667;52.136;5.424;2024-03-07T08:52:10;10.35;;;6.88;;
76693;SDS011;69667;52.136;5.424;2024-03-07T08:54:37;15.52;;;8.43;;
76693;SDS011;69667;52.136;5.424;2024-03-07T08:57:05;10.48;;;6.22;;
76693;SDS011;69667;52.136;5.424;2024-03-07T08:59:44;13.57;;;7.53;;
76693;SDS011;69667;52.136;5.424;2024-03-07T09:02:21;13.20;;;7.15;;
76693;SDS011;69667;52.136;5.424;2024-03-07T09:04:48;11.38;;;7.10;;
76693;SDS011;69667;52.136;5.424;2024-03-07T09:10:26;12.45;;;7.28;;
76693;SDS011;69667;52.136;5.424;2024-03-07T09:13:21;13.32;;;7.97;;
76693;SDS011;69667;52.136;5.424;2024-03-07T09:15:49;12.38;;;7.15;;
76693;SDS011;69667;52.136;5.424;2024-03-07T09:18:15;10.25;;;6.50;;
76693;SDS011;69667;52.136;5.424;2024-03-07T09:20:43;13.82;;;6.75;;
76693;SDS011;69667;52.136;5.424;2024-03-07T09:23:10;12.50;;;7.10;;
76693;SDS011;69667;52.136;5.424;2024-03-07T09:25:38;10.45;;;6.20;;
76693;SDS011;69667;52.136;5.424;2024-03-07T09:28:07;10.27;;;6.57;;
76693;SDS011;69667;52.136;5.424;2024-03-07T09:30:35;12.18;;;6.57;;
76693;SDS011;69667;52.136;5.424;2024-03-07T09:33:06;11.38;;;7.03;;
76693;SDS011;69667;52.136;5.424;2024-03-07T09:35:38;10.35;;;6.80;;
76693;SDS011;69667;52.136;5.424;2024-03-07T09:38:05;10.93;;;6.43;;
76693;SDS011;69667;52.136;5.424;2024-03-07T09:43:02;9.13;;;6.03;;
76693;SDS011;69667;52.136;5.424;2024-03-07T09:45:30;12.43;;;6.60;;
76693;SDS011;69667;52.136;5.424;2024-03-07T09:50:26;12.35;;;6.40;;
76693;SDS011;69667;52.136;5.424;2024-03-07T09:52:57;9.40;;;6.53;;
76693;SDS011;69667;52.136;5.424;2024-03-07T09:55:25;13.05;;;6.80;;
76693;SDS011;69667;52.136;5.424;2024-03-07T09:57:53;11.50;;;6.47;;
76693;SDS011;69667;52.136;5.424;2024-03-07T10:00:24;10.65;;;5.88;;
76693;SDS011;69667;52.136;5.424;2024-03-07T10:03:07;11.40;;;6.97;;
76693;SDS011;69667;52.136;5.424;2024-03-07T10:05:36;9.40;;;5.75;;
76693;SDS011;69667;52.136;5.424;2024-03-07T10:08:05;13.63;;;6.20;;
76693;SDS011;69667;52.136;5.424;2024-03-07T10:10:34;11.45;;;6.18;;
76693;SDS011;69667;52.136;5.424;2024-03-07T10:13:01;11.98;;;6.68;;
76693;SDS011;69667;52.136;5.424;2024-03-07T10:15:30;12.02;;;6.38;;
76693;SDS011;69667;52.136;5.424;2024-03-07T10:17:58;11.40;;;6.38;;
76693;SDS011;69667;52.136;5.424;2024-03-07T10:20:28;13.52;;;6.90;;
76693;SDS011;69667;52.136;5.424;2024-03-07T10:22:57;11.32;;;6.65;;
76693;SDS011;69667;52.136;5.424;2024-03-07T10:25:24;12.35;;;6.53;;
76693;SDS011;69667;52.136;5.424;2024-03-07T10:27:56;13.13;;;7.75;;
76693;SDS011;69667;52.136;5.424;2024-03-07T10:30:29;11.27;;;6.05;;
76693;SDS011;69667;52.136;5.424;2024-03-07T10:32:57;11.85;;;7.07;;
76693;SDS011;69667;52.136;5.424;2024-03-07T10:35:28;15.43;;;7.82;;
76693;SDS011;69667;52.136;5.424;2024-03-07T10:37:57;15.35;;;7.57;;
76693;SDS011;69667;52.136;5.424;2024-03-07T10:40:35;13.75;;;7.15;;
76693;SDS011;69667;52.136;5.424;2024-03-07T10:43:04;13.35;;;6.53;;
76693;SDS011;69667;52.136;5.424;2024-03-07T10:45:47;13.32;;;6.45;;
76693;SDS011;69667;52.136;5.424;2024-03-07T10:48:19;12.35;;;6.63;;
76693;SDS011;69667;52.136;5.424;2024-03-07T10:50:54;10.75;;;5.82;;
76693;SDS011;69667;52.136;5.424;2024-03-07T10:59:19;10.50;;;5.75;;
76693;SDS011;69667;52.136;5.424;2024-03-07T11:02:09;13.57;;;7.13;;
76693;SDS011;69667;52.136;5.424;2024-03-07T11:04:56;12.50;;;5.70;;
76693;SDS011;69667;52.136;5.424;2024-03-07T11:07:25;13.95;;;7.50;;
76693;SDS011;69667;52.136;5.424;2024-03-07T11:09:54;13.77;;;6.47;;
76693;SDS011;69667;52.136;5.424;2024-03-07T11:12:23;12.93;;;7.03;;
76693;SDS011;69667;52.136;5.424;2024-03-07T11:14:51;12.10;;;6.32;;
76693;SDS011;69667;52.136;5.424;2024-03-07T11:17:21;13.20;;;7.18;;
76693;SDS011;69667;52.136;5.424;2024-03-07T11:19:50;11.13;;;6.05;;
76693;SDS011;69667;52.136;5.424;2024-03-07T11:22:30;14.38;;;7.05;;
76693;SDS011;69667;52.136;5.424;2024-03-07T11:25:02;11.68;;;6.13;;
76693;SDS011;69667;52.136;5.424;2024-03-07T11:27:36;11.57;;;5.57;;
76693;SDS011;69667;52.136;5.424;2024-03-07T11:30:06;13.18;;;5.78;;
76693;SDS011;69667;52.136;5.424;2024-03-07T11:32:35;15.98;;;7.00;;
76693;SDS011;69667;52.136;5.424;2024-03-07T11:35:04;12.43;;;6.95;;
76693;SDS011;69667;52.136;5.424;2024-03-07T11:37:44;14.57;;;6.78;;
76693;SDS011;69667;52.136;5.424;2024-03-07T11:42:46;14.60;;;7.10;;
76693;SDS011;69667;52.136;5.424;2024-03-07T11:45:15;13.45;;;5.72;;
76693;SDS011;69667;52.136;5.424;2024-03-07T11:47:55;10.82;;;5.95;;
76693;SDS011;69667;52.136;5.424;2024-03-07T11:50:39;11.48;;;6.63;;
76693;SDS011;69667;52.136;5.424;2024-03-07T11:53:08;12.85;;;5.93;;
76693;SDS011;69667;52.136;5.424;2024-03-07T11:55:39;12.85;;;5.53;;
76693;SDS011;69667;52.136;5.424;2024-03-07T11:58:16;11.23;;;5.65;;
76693;SDS011;69667;52.136;5.424;2024-03-07T12:00:44;13.18;;;6.57;;
76693;SDS011;69667;52.136;5.424;2024-03-07T12:03:15;11.23;;;5.57;;
76693;SDS011;69667;52.136;5.424;2024-03-07T12:05:53;9.85;;;5.50;;
76693;SDS011;69667;52.136;5.424;2024-03-07T12:08:22;12.32;;;5.18;;
76693;SDS011;69667;52.136;5.424;2024-03-07T12:10:51;8.40;;;4.82;;
76693;SDS011;69667;52.136;5.424;2024-03-07T12:13:25;11.82;;;5.03;;
76693;SDS011;69667;52.136;5.424;2024-03-07T12:15:53;14.93;;;5.50;;
76693;SDS011;69667;52.136;5.424;2024-03-07T12:18:22;12.27;;;5.78;;
76693;SDS011;69667;52.136;5.424;2024-03-07T12:20:51;10.23;;;5.10;;
76693;SDS011;69667;52.136;5.424;2024-03-07T12:23:23;14.55;;;5.25;;
76693;SDS011;69667;52.136;5.424;2024-03-07T12:25:59;10.90;;;4.90;;
76693;SDS011;69667;52.136;5.424;2024-03-07T12:28:30;11.68;;;5.43;;
76693;SDS011;69667;52.136;5.424;2024-03-07T12:31:02;14.80;;;4.90;;
76693;SDS011;69667;52.136;5.424;2024-03-07T12:33:30;8.88;;;4.70;;
76693;SDS011;69667;52.136;5.424;2024-03-07T12:36:01;11.55;;;5.03;;
76693;SDS011;69667;52.136;5.424;2024-03-07T12:38:38;11.20;;;4.68;;
76693;SDS011;69667;52.136;5.424;2024-03-07T12:41:10;10.38;;;4.25;;
76693;SDS011;69667;52.136;5.424;2024-03-07T12:43:43;10.10;;;5.05;;
76693;SDS011;69667;52.136;5.424;2024-03-07T12:46:13;14.20;;;6.18;;
76693;SDS011;69667;52.136;5.424;2024-03-07T12:48:43;11.90;;;5.35;;
76693;SDS011;69667;52.136;5.424;2024-03-07T12:51:13;7.95;;;3.30;;
76693;SDS011;69667;52.136;5.424;2024-03-07T12:53:47;11.30;;;5.22;;
76693;SDS011;69667;52.136;5.424;2024-03-07T12:56:15;9.82;;;4.05;;
76693;SDS011;69667;52.136;5.424;2024-03-07T12:58:52;12.32;;;5.57;;
76693;SDS011;69667;52.136;5.424;2024-03-07T13:01:21;12.07;;;6.03;;
76693;SDS011;69667;52.136;5.424;2024-03-07T13:03:48;11.27;;;5.70;;
76693;SDS011;69667;52.136;5.424;2024-03-07T13:06:16;11.52;;;5.38;;
76693;SDS011;69667;52.136;5.424;2024-03-07T13:08:50;10.32;;;5.03;;
76693;SDS011;69667;52.136;5.424;2024-03-07T13:11:17;10.13;;;5.00;;
76693;SDS011;69667;52.136;5.424;2024-03-07T13:13:45;10.55;;;4.90;;
76693;SDS011;69667;52.136;5.424;2024-03-07T13:16:12;10.05;;;4.97;;
76693;SDS011;69667;52.136;5.424;2024-03-07T13:18:39;8.00;;;4.63;;
76693;SDS011;69667;52.136;5.424;2024-03-07T13:21:06;8.98;;;4.57;;
76693;SDS011;69667;52.136;5.424;2024-03-07T13:23:34;10.27;;;4.85;;
76693;SDS011;69667;52.136;5.424;2024-03-07T13:26:03;9.30;;;4.10;;
76693;SDS011;69667;52.136;5.424;2024-03-07T13:28:35;12.63;;;6.25;;
76693;SDS011;69667;52.136;5.424;2024-03-07T13:31:03;8.93;;;4.22;;
76693;SDS011;69667;52.136;5.424;2024-03-07T13:33:30;11.73;;;5.32;;
76693;SDS011;69667;52.136;5.424;2024-03-07T13:35:58;9.82;;;5.18;;
76693;SDS011;69667;52.136;5.424;2024-03-07T13:38:28;10.57;;;5.57;;
76693;SDS011;69667;52.136;5.424;2024-03-07T13:41:00;7.90;;;3.97;;
76693;SDS011;69667;52.136;5.424;2024-03-07T13:43:32;11.50;;;5.90;;
76693;SDS011;69667;52.136;5.424;2024-03-07T13:46:00;8.68;;;4.82;;
76693;SDS011;69667;52.136;5.424;2024-03-07T13:48:28;11.73;;;5.90;;
76693;SDS011;69667;52.136;5.424;2024-03-07T13:50:56;13.52;;;5.10;;
76693;SDS011;69667;52.136;5.424;2024-03-07T13:53:26;11.60;;;5.40;;
76693;SDS011;69667;52.136;5.424;2024-03-07T14:07:09;13.38;;;6.05;;
76693;SDS011;69667;52.136;5.424;2024-03-07T14:10:08;9.93;;;6.00;;
76693;SDS011;69667;52.136;5.424;2024-03-07T14:12:53;11.23;;;4.80;;
76693;SDS011;69667;52.136;5.424;2024-03-07T14:21:48;9.15;;;4.57;;
76693;SDS011;69667;52.136;5.424;2024-03-07T14:27:33;8.45;;;4.93;;
76693;SDS011;69667;52.136;5.424;2024-03-07T14:33:26;10.27;;;5.13;;
76693;SDS011;69667;52.136;5.424;2024-03-07T14:36:07;6.43;;;3.50;;
76693;SDS011;69667;52.136;5.424;2024-03-07T14:41:17;8.55;;;4.72;;
76693;SDS011;69667;52.136;5.424;2024-03-07T14:43:45;10.95;;;5.53;;
76693;SDS011;69667;52.136;5.424;2024-03-07T14:46:13;9.50;;;4.05;;
76693;SDS011;69667;52.136;5.424;2024-03-07T14:48:42;13.05;;;6.15;;
76693;SDS011;69667;52.136;5.424;2024-03-07T14:51:12;11.60;;;5.47;;
76693;SDS011;69667;52.136;5.424;2024-03-07T14:53:51;9.27;;;5.28;;
76693;SDS011;69667;52.136;5.424;2024-03-07T14:56:18;8.00;;;4.65;;
76693;SDS011;69667;52.136;5.424;2024-03-07T14:58:46;8.40;;;5.35;;
76693;SDS011;69667;52.136;5.424;2024-03-07T15:01:13;7.85;;;4.40;;
76693;SDS011;69667;52.136;5.424;2024-03-07T15:03:41;8.82;;;4.70;;
76693;SDS011;69667;52.136;5.424;2024-03-07T15:06:12;6.80;;;3.35;;
76693;SDS011;69667;52.136;5.424;2024-03-07T15:08:41;11.40;;;5.45;;
76693;SDS011;69667;52.136;5.424;2024-03-07T15:11:13;11.85;;;4.70;;
76693;SDS011;69667;52.136;5.424;2024-03-07T15:13:48;9.25;;;4.63;;
76693;SDS011;69667;52.136;5.424;2024-03-07T15:16:15;9.30;;;4.75;;
76693;SDS011;69667;52.136;5.424;2024-03-07T15:18:59;9.35;;;4.97;;
76693;SDS011;69667;52.136;5.424;2024-03-07T15:21:27;9.70;;;5.32;;
76693;SDS011;69667;52.136;5.424;2024-03-07T15:23:56;10.10;;;5.18;;
76693;SDS011;69667;52.136;5.424;2024-03-07T15:26:25;9.95;;;4.68;;
76693;SDS011;69667;52.136;5.424;2024-03-07T15:28:53;11.70;;;5.60;;
76693;SDS011;69667;52.136;5.424;2024-03-07T15:31:23;10.40;;;4.90;;
76693;SDS011;69667;52.136;5.424;2024-03-07T15:33:51;10.85;;;4.70;;
76693;SDS011;69667;52.136;5.424;2024-03-07T15:36:18;11.18;;;5.55;;
76693;SDS011;69667;52.136;5.424;2024-03-07T15:38:48;9.02;;;4.55;;
76693;SDS011;69667;52.136;5.424;2024-03-07T15:41:16;10.98;;;5.55;;
76693;SDS011;69667;52.136;5.424;2024-03-07T15:43:43;8.48;;;4.18;;
76693;SDS011;69667;52.136;5.424;2024-03-07T15:46:11;8.88;;;4.28;;
76693;SDS011;69667;52.136;5.424;2024-03-07T15:48:40;11.18;;;4.78;;
76693;SDS011;69667;52.136;5.424;2024-03-07T15:51:08;7.93;;;3.78;;
76693;SDS011;69667;52.136;5.424;2024-03-07T15:53:38;9.77;;;4.13;;